sensor_id;sensor_type;location;lat;lon;timestamp;temperature;humidity
13684;DHT22;6914;53.552;9.908;2022-08-04T00:00:14;22.10;99.90
13684;DHT22;6914;53.552;9.908;2022-08-04T00:02:49;22.10;99.90
13684;DHT22;6914;53.552;9.908;2022-08-04T00:05:25;22.10;99.90
13684;DHT22;6914;53.552;9.908;2022-08-04T00:08:03;22.00;99.90
13684;DHT22;6914;53.552;9.908;2022-08-04T00:10:31;22.00;99.90
13684;DHT22;6914;53.552;9.908;2022-08-04T00:13:02;22.00;99.90
13684;DHT22;6914;53.552;9.908;2022-08-04T00:15:32;22.00;99.90
13684;DHT22;6914;53.552;9.908;2022-08-04T00:18:00;22.00;99.90
13684;DHT22;6914;53.552;9.908;2022-08-04T00:20:31;21.90;99.90
13684;DHT22;6914;53.552;9.908;2022-08-04T00:23:00;22.00;99.90
13684;DHT22;6914;53.552;9.908;2022-08-04T00:25:28;22.00;99.90
13684;DHT22;6914;53.552;9.908;2022-08-04T00:27:56;22.00;99.90
13684;DHT22;6914;53.552;9.908;2022-08-04T00:30:24;22.00;99.90
13684;DHT22;6914;53.552;9.908;2022-08-04T00:32:53;22.00;99.90
13684;DHT22;6914;53.552;9.908;2022-08-04T00:35:22;22.00;99.90
13684;DHT22;6914;53.552;9.908;2022-08-04T00:37:50;22.00;99.90
13684;DHT22;6914;53.552;9.908;2022-08-04T00:40:23;22.00;99.90
13684;DHT22;6914;53.552;9.908;2022-08-04T00:43:02;22.00;99.90
13684;DHT22;6914;53.552;9.908;2022-08-04T00:48:58;22.00;99.90
13684;DHT22;6914;53.552;9.908;2022-08-04T00:51:36;21.90;99.90
13684;DHT22;6914;53.552;9.908;2022-08-04T00:54:11;21.90;99.90
13684;DHT22;6914;53.552;9.908;2022-08-04T00:57:01;21.90;99.90
13684;DHT22;6914;53.552;9.908;2022-08-04T00:59:43;21.90;99.90
13684;DHT22;6914;53.552;9.908;2022-08-04T01:02:20;21.90;99.90
13684;DHT22;6914;53.552;9.908;2022-08-04T01:05:02;21.90;99.90
13684;DHT22;6914;53.552;9.908;2022-08-04T01:07:42;21.90;99.90
13684;DHT22;6914;53.552;9.908;2022-08-04T01:10:18;21.90;99.90
13684;DHT22;6914;53.552;9.908;2022-08-04T01:13:09;21.80;99.90
13684;DHT22;6914;53.552;9.908;2022-08-04T01:15:40;21.80;99.90
13684;DHT22;6914;53.552;9.908;2022-08-04T01:18:17;21.80;99.90
13684;DHT22;6914;53.552;9.908;2022-08-04T01:20:58;21.70;99.90
13684;DHT22;6914;53.552;9.908;2022-08-04T01:23:53;21.70;99.90
13684;DHT22;6914;53.552;9.908;2022-08-04T01:26:42;21.80;99.90
13684;DHT22;6914;53.552;9.908;2022-08-04T01:29:12;21.80;99.90
13684;DHT22;6914;53.552;9.908;2022-08-04T01:32:01;21.80;99.90
13684;DHT22;6914;53.552;9.908;2022-08-04T01:34:33;21.70;99.90
13684;DHT22;6914;53.552;9.908;2022-08-04T01:37:08;21.70;99.90
13684;DHT22;6914;53.552;9.908;2022-08-04T01:39:42;21.70;99.90
13684;DHT22;6914;53.552;9.908;2022-08-04T01:42:10;21.70;99.90
13684;DHT22;6914;53.552;9.908;2022-08-04T01:44:40;21.70;99.90
13684;DHT22;6914;53.552;9.908;2022-08-04T01:47:08;21.60;99.90
13684;DHT22;6914;53.552;9.908;2022-08-04T01:49:37;21.60;99.90
13684;DHT22;6914;53.552;9.908;2022-08-04T01:52:07;21.70;99.90
13684;DHT22;6914;53.552;9.908;2022-08-04T01:54:38;21.60;99.90
13684;DHT22;6914;53.552;9.908;2022-08-04T01:57:08;21.60;99.90
13684;DHT22;6914;53.552;9.908;2022-08-04T01:59:37;21.60;99.90
13684;DHT22;6914;53.552;9.908;2022-08-04T02:02:06;21.60;99.90
13684;DHT22;6914;53.552;9.908;2022-08-04T02:04:34;21.50;99.90
13684;DHT22;6914;53.552;9.908;2022-08-04T02:07:12;21.50;99.90
13684;DHT22;6914;53.552;9.908;2022-08-04T02:09:46;21.50;99.90
13684;DHT22;6914;53.552;9.908;2022-08-04T02:12:24;21.50;99.90
13684;DHT22;6914;53.552;9.908;2022-08-04T02:14:56;21.50;99.90
13684;DHT22;6914;53.552;9.908;2022-08-04T02:17:31;21.40;99.90
13684;DHT22;6914;53.552;9.908;2022-08-04T02:20:07;21.30;99.90
13684;DHT22;6914;53.552;9.908;2022-08-04T02:22:40;21.40;99.90
13684;DHT22;6914;53.552;9.908;2022-08-04T02:25:11;21.40;99.90
13684;DHT22;6914;53.552;9.908;2022-08-04T02:27:53;21.40;99.90
13684;DHT22;6914;53.552;9.908;2022-08-04T02:30:23;21.40;99.90
13684;DHT22;6914;53.552;9.908;2022-08-04T02:32:57;21.40;99.90
13684;DHT22;6914;53.552;9.908;2022-08-04T02:35:28;21.30;99.90
13684;DHT22;6914;53.552;9.908;2022-08-04T02:38:10;21.30;99.90
13684;DHT22;6914;53.552;9.908;2022-08-04T02:40:39;21.30;99.90
13684;DHT22;6914;53.552;9.908;2022-08-04T02:43:07;21.40;99.90
13684;DHT22;6914;53.552;9.908;2022-08-04T02:45:35;21.40;99.90
13684;DHT22;6914;53.552;9.908;2022-08-04T02:48:07;21.30;99.90
13684;DHT22;6914;53.552;9.908;2022-08-04T02:50:37;21.30;99.90
13684;DHT22;6914;53.552;9.908;2022-08-04T02:53:05;21.30;99.90
13684;DHT22;6914;53.552;9.908;2022-08-04T02:55:35;21.20;99.90
13684;DHT22;6914;53.552;9.908;2022-08-04T02:58:04;21.20;99.90
13684;DHT22;6914;53.552;9.908;2022-08-04T03:00:32;21.20;99.90
13684;DHT22;6914;53.552;9.908;2022-08-04T03:03:12;21.20;99.90
13684;DHT22;6914;53.552;9.908;2022-08-04T03:05:54;21.10;99.90
13684;DHT22;6914;53.552;9.908;2022-08-04T03:14:52;21.00;99.90
13684;DHT22;6914;53.552;9.908;2022-08-04T03:17:43;21.00;99.90
13684;DHT22;6914;53.552;9.908;2022-08-04T03:20:42;21.00;99.90
13684;DHT22;6914;53.552;9.908;2022-08-04T03:23:43;21.00;99.90
13684;DHT22;6914;53.552;9.908;2022-08-04T03:29:59;21.00;99.90
13684;DHT22;6914;53.552;9.908;2022-08-04T03:33:23;21.00;99.90
13684;DHT22;6914;53.552;9.908;2022-08-04T03:42:38;21.10;99.90
13684;DHT22;6914;53.552;9.908;2022-08-04T03:45:46;21.00;99.90
13684;DHT22;6914;53.552;9.908;2022-08-04T03:48:39;21.00;99.90
13684;DHT22;6914;53.552;9.908;2022-08-04T03:51:18;21.00;99.90
13684;DHT22;6914;53.552;9.908;2022-08-04T04:00:19;21.00;99.90
13684;DHT22;6914;53.552;9.908;2022-08-04T04:09:18;21.00;99.90
13684;DHT22;6914;53.552;9.908;2022-08-04T04:12:11;21.00;99.90
13684;DHT22;6914;53.552;9.908;2022-08-04T04:15:00;21.00;99.90
13684;DHT22;6914;53.552;9.908;2022-08-04T04:20:55;21.00;99.90
13684;DHT22;6914;53.552;9.908;2022-08-04T04:26:36;21.00;99.90
13684;DHT22;6914;53.552;9.908;2022-08-04T04:32:08;21.00;99.90
13684;DHT22;6914;53.552;9.908;2022-08-04T04:34:50;21.10;99.90
13684;DHT22;6914;53.552;9.908;2022-08-04T04:37:28;21.10;99.90
13684;DHT22;6914;53.552;9.908;2022-08-04T04:40:09;21.20;99.90
13684;DHT22;6914;53.552;9.908;2022-08-04T04:43:03;21.30;99.90
13684;DHT22;6914;53.552;9.908;2022-08-04T04:45:40;21.20;99.90
13684;DHT22;6914;53.552;9.908;2022-08-04T04:48:16;21.30;99.90
13684;DHT22;6914;53.552;9.908;2022-08-04T04:50:55;21.30;99.90
13684;DHT22;6914;53.552;9.908;2022-08-04T04:53:28;21.40;99.90
13684;DHT22;6914;53.552;9.908;2022-08-04T04:56:02;21.40;99.90
13684;DHT22;6914;53.552;9.908;2022-08-04T04:58:33;21.50;99.90
13684;DHT22;6914;53.552;9.908;2022-08-04T05:01:30;21.50;99.90
13684;DHT22;6914;53.552;9.908;2022-08-04T05:04:24;21.50;99.90
13684;DHT22;6914;53.552;9.908;2022-08-04T05:07:27;21.50;99.90
13684;DHT22;6914;53.552;9.908;2022-08-04T05:10:04;21.50;99.90
13684;DHT22;6914;53.552;9.908;2022-08-04T05:12:56;21.60;99.90
13684;DHT22;6914;53.552;9.908;2022-08-04T05:15:35;21.60;99.90
13684;DHT22;6914;53.552;9.908;2022-08-04T05:18:05;21.60;99.90
13684;DHT22;6914;53.552;9.908;2022-08-04T05:20:39;21.70;99.90
13684;DHT22;6914;53.552;9.908;2022-08-04T05:23:12;21.60;99.90
13684;DHT22;6914;53.552;9.908;2022-08-04T05:25:43;21.70;99.90
13684;DHT22;6914;53.552;9.908;2022-08-04T05:28:15;21.70;99.90
13684;DHT22;6914;53.552;9.908;2022-08-04T05:30:49;21.70;99.90
13684;DHT22;6914;53.552;9.908;2022-08-04T05:33:21;21.80;99.90
13684;DHT22;6914;53.552;9.908;2022-08-04T05:35:54;21.80;99.90
13684;DHT22;6914;53.552;9.908;2022-08-04T05:38:26;21.90;99.90
13684;DHT22;6914;53.552;9.908;2022-08-04T05:40:55;22.00;99.90
13684;DHT22;6914;53.552;9.908;2022-08-04T05:43:24;22.00;99.90
13684;DHT22;6914;53.552;9.908;2022-08-04T05:45:52;22.20;99.90
13684;DHT22;6914;53.552;9.908;2022-08-04T05:48:22;22.30;99.90
13684;DHT22;6914;53.552;9.908;2022-08-04T05:50:52;22.30;99.90
13684;DHT22;6914;53.552;9.908;2022-08-04T05:53:20;22.30;99.90
13684;DHT22;6914;53.552;9.908;2022-08-04T05:55:47;22.40;99.90
13684;DHT22;6914;53.552;9.908;2022-08-04T05:58:16;22.40;99.90
13684;DHT22;6914;53.552;9.908;2022-08-04T06:00:44;22.40;99.90
13684;DHT22;6914;53.552;9.908;2022-08-04T06:03:12;22.40;99.90
13684;DHT22;6914;53.552;9.908;2022-08-04T06:05:41;22.40;99.90
13684;DHT22;6914;53.552;9.908;2022-08-04T06:08:10;22.40;99.90
13684;DHT22;6914;53.552;9.908;2022-08-04T06:10:39;22.70;99.90
13684;DHT22;6914;53.552;9.908;2022-08-04T06:13:10;22.70;99.90
13684;DHT22;6914;53.552;9.908;2022-08-04T06:15:42;22.80;99.90
13684;DHT22;6914;53.552;9.908;2022-08-04T06:18:11;22.90;99.90
13684;DHT22;6914;53.552;9.908;2022-08-04T06:20:41;23.00;99.90
13684;DHT22;6914;53.552;9.908;2022-08-04T06:23:14;23.00;99.90
13684;DHT22;6914;53.552;9.908;2022-08-04T06:25:45;23.10;99.90
13684;DHT22;6914;53.552;9.908;2022-08-04T06:28:13;23.10;99.90
13684;DHT22;6914;53.552;9.908;2022-08-04T06:30:41;23.10;99.90
13684;DHT22;6914;53.552;9.908;2022-08-04T06:33:13;23.20;99.90
13684;DHT22;6914;53.552;9.908;2022-08-04T06:35:51;23.20;99.90
13684;DHT22;6914;53.552;9.908;2022-08-04T06:38:22;23.20;99.90
13684;DHT22;6914;53.552;9.908;2022-08-04T06:40:51;23.30;99.90
13684;DHT22;6914;53.552;9.908;2022-08-04T06:43:19;23.40;99.90
13684;DHT22;6914;53.552;9.908;2022-08-04T06:45:48;23.50;99.90
13684;DHT22;6914;53.552;9.908;2022-08-04T06:48:17;23.60;99.90
13684;DHT22;6914;53.552;9.908;2022-08-04T06:50:49;23.80;99.90
13684;DHT22;6914;53.552;9.908;2022-08-04T06:53:16;23.90;99.90
13684;DHT22;6914;53.552;9.908;2022-08-04T06:55:46;23.90;99.90
13684;DHT22;6914;53.552;9.908;2022-08-04T06:58:15;24.00;99.90
13684;DHT22;6914;53.552;9.908;2022-08-04T07:00:44;24.10;99.90
13684;DHT22;6914;53.552;9.908;2022-08-04T07:03:12;24.10;99.90
13684;DHT22;6914;53.552;9.908;2022-08-04T07:05:40;24.20;99.90
13684;DHT22;6914;53.552;9.908;2022-08-04T07:08:09;24.20;99.90
13684;DHT22;6914;53.552;9.908;2022-08-04T07:10:37;24.30;99.90
13684;DHT22;6914;53.552;9.908;2022-08-04T07:13:07;24.30;99.90
13684;DHT22;6914;53.552;9.908;2022-08-04T07:15:35;24.40;99.90
13684;DHT22;6914;53.552;9.908;2022-08-04T07:18:02;24.60;99.90
13684;DHT22;6914;53.552;9.908;2022-08-04T07:20:30;24.70;99.90
13684;DHT22;6914;53.552;9.908;2022-08-04T07:22:58;24.80;99.90
13684;DHT22;6914;53.552;9.908;2022-08-04T07:25:26;24.90;99.90
13684;DHT22;6914;53.552;9.908;2022-08-04T07:27:53;25.00;99.90
13684;DHT22;6914;53.552;9.908;2022-08-04T07:30:23;25.10;99.90
13684;DHT22;6914;53.552;9.908;2022-08-04T07:32:52;25.20;99.90
13684;DHT22;6914;53.552;9.908;2022-08-04T07:35:21;25.30;99.90
13684;DHT22;6914;53.552;9.908;2022-08-04T07:37:49;25.30;99.90
13684;DHT22;6914;53.552;9.908;2022-08-04T07:40:16;25.50;99.90
13684;DHT22;6914;53.552;9.908;2022-08-04T07:42:43;25.30;99.90
13684;DHT22;6914;53.552;9.908;2022-08-04T07:45:11;25.70;99.90
13684;DHT22;6914;53.552;9.908;2022-08-04T07:47:42;25.70;99.90
13684;DHT22;6914;53.552;9.908;2022-08-04T07:50:09;25.90;99.90
13684;DHT22;6914;53.552;9.908;2022-08-04T07:52:37;25.90;99.90
13684;DHT22;6914;53.552;9.908;2022-08-04T07:55:06;26.00;99.90
13684;DHT22;6914;53.552;9.908;2022-08-04T07:57:34;26.10;99.90
13684;DHT22;6914;53.552;9.908;2022-08-04T08:00:01;26.20;99.90
13684;DHT22;6914;53.552;9.908;2022-08-04T08:02:29;26.30;99.90
13684;DHT22;6914;53.552;9.908;2022-08-04T08:04:59;26.40;99.90
13684;DHT22;6914;53.552;9.908;2022-08-04T08:07:27;26.60;99.90
13684;DHT22;6914;53.552;9.908;2022-08-04T08:09:54;26.70;99.90
13684;DHT22;6914;53.552;9.908;2022-08-04T08:12:21;26.80;99.90
13684;DHT22;6914;53.552;9.908;2022-08-04T08:14:48;26.90;99.90
13684;DHT22;6914;53.552;9.908;2022-08-04T08:17:17;27.10;99.90
13684;DHT22;6914;53.552;9.908;2022-08-04T08:19:46;27.20;99.90
13684;DHT22;6914;53.552;9.908;2022-08-04T08:22:15;27.30;99.90
13684;DHT22;6914;53.552;9.908;2022-08-04T08:24:44;27.40;99.90
13684;DHT22;6914;53.552;9.908;2022-08-04T08:27:11;27.60;99.90
13684;DHT22;6914;53.552;9.908;2022-08-04T08:29:39;27.70;99.90
13684;DHT22;6914;53.552;9.908;2022-08-04T08:32:09;28.00;99.90
13684;DHT22;6914;53.552;9.908;2022-08-04T08:34:39;28.30;99.90
13684;DHT22;6914;53.552;9.908;2022-08-04T08:37:12;28.50;99.90
13684;DHT22;6914;53.552;9.908;2022-08-04T08:39:49;28.80;99.90
13684;DHT22;6914;53.552;9.908;2022-08-04T08:42:38;28.90;99.90
13684;DHT22;6914;53.552;9.908;2022-08-04T08:45:46;29.10;99.90
13684;DHT22;6914;53.552;9.908;2022-08-04T08:48:55;29.30;99.90
13684;DHT22;6914;53.552;9.908;2022-08-04T08:51:38;29.40;99.90
13684;DHT22;6914;53.552;9.908;2022-08-04T08:57:32;29.30;99.80
13684;DHT22;6914;53.552;9.908;2022-08-04T09:00:09;29.40;99.90
13684;DHT22;6914;53.552;9.908;2022-08-04T09:06:14;29.80;98.10
13684;DHT22;6914;53.552;9.908;2022-08-04T09:09:08;30.10;92.40
13684;DHT22;6914;53.552;9.908;2022-08-04T09:11:43;30.80;83.70
13684;DHT22;6914;53.552;9.908;2022-08-04T09:14:20;30.30;89.00
13684;DHT22;6914;53.552;9.908;2022-08-04T09:16:56;31.00;86.00
13684;DHT22;6914;53.552;9.908;2022-08-04T09:19:31;30.40;82.60
13684;DHT22;6914;53.552;9.908;2022-08-04T09:22:02;30.60;79.00
13684;DHT22;6914;53.552;9.908;2022-08-04T09:24:36;30.60;84.30
13684;DHT22;6914;53.552;9.908;2022-08-04T09:27:11;30.70;78.40
13684;DHT22;6914;53.552;9.908;2022-08-04T09:29:46;31.00;73.70
13684;DHT22;6914;53.552;9.908;2022-08-04T09:32:26;31.10;76.70
13684;DHT22;6914;53.552;9.908;2022-08-04T09:35:05;31.40;72.10
13684;DHT22;6914;53.552;9.908;2022-08-04T09:37:45;31.60;66.90
13684;DHT22;6914;53.552;9.908;2022-08-04T09:40:20;31.80;63.80
13684;DHT22;6914;53.552;9.908;2022-08-04T09:42:55;31.90;62.40
13684;DHT22;6914;53.552;9.908;2022-08-04T09:45:37;31.90;61.30
13684;DHT22;6914;53.552;9.908;2022-08-04T09:48:11;32.20;60.20
13684;DHT22;6914;53.552;9.908;2022-08-04T09:50:41;32.30;60.50
13684;DHT22;6914;53.552;9.908;2022-08-04T09:53:28;32.40;59.80
13684;DHT22;6914;53.552;9.908;2022-08-04T09:56:02;32.20;58.80
13684;DHT22;6914;53.552;9.908;2022-08-04T09:58:49;32.20;58.80
13684;DHT22;6914;53.552;9.908;2022-08-04T10:01:22;32.70;58.00
13684;DHT22;6914;53.552;9.908;2022-08-04T10:03:54;33.50;56.50
13684;DHT22;6914;53.552;9.908;2022-08-04T10:10:00;34.10;53.00
13684;DHT22;6914;53.552;9.908;2022-08-04T10:12:34;35.10;51.50
13684;DHT22;6914;53.552;9.908;2022-08-04T10:15:09;35.40;49.80
13684;DHT22;6914;53.552;9.908;2022-08-04T10:18:03;36.20;48.50
13684;DHT22;6914;53.552;9.908;2022-08-04T10:20:45;36.20;47.70
13684;DHT22;6914;53.552;9.908;2022-08-04T10:23:26;37.20;46.10
13684;DHT22;6914;53.552;9.908;2022-08-04T10:26:05;38.50;44.70
13684;DHT22;6914;53.552;9.908;2022-08-04T10:28:42;39.40;42.00
13684;DHT22;6914;53.552;9.908;2022-08-04T10:31:15;39.40;40.90
13684;DHT22;6914;53.552;9.908;2022-08-04T10:33:51;38.10;41.20
13684;DHT22;6914;53.552;9.908;2022-08-04T10:36:22;37.50;42.30
13684;DHT22;6914;53.552;9.908;2022-08-04T10:38:58;37.20;42.70
13684;DHT22;6914;53.552;9.908;2022-08-04T10:41:33;37.20;43.20
13684;DHT22;6914;53.552;9.908;2022-08-04T10:44:13;37.40;42.40
13684;DHT22;6914;53.552;9.908;2022-08-04T10:46:46;37.90;42.80
13684;DHT22;6914;53.552;9.908;2022-08-04T10:49:22;38.40;41.20
13684;DHT22;6914;53.552;9.908;2022-08-04T10:51:53;39.10;40.70
13684;DHT22;6914;53.552;9.908;2022-08-04T10:54:26;38.90;40.10
13684;DHT22;6914;53.552;9.908;2022-08-04T10:56:58;38.50;39.50
13684;DHT22;6914;53.552;9.908;2022-08-04T10:59:33;38.50;39.50
13684;DHT22;6914;53.552;9.908;2022-08-04T11:02:16;38.10;39.50
13684;DHT22;6914;53.552;9.908;2022-08-04T11:04:50;37.90;39.90
13684;DHT22;6914;53.552;9.908;2022-08-04T11:07:23;39.10;38.80
13684;DHT22;6914;53.552;9.908;2022-08-04T11:09:51;39.10;37.40
13684;DHT22;6914;53.552;9.908;2022-08-04T11:12:22;38.80;36.40
13684;DHT22;6914;53.552;9.908;2022-08-04T11:14:53;37.70;36.60
13684;DHT22;6914;53.552;9.908;2022-08-04T11:17:25;37.40;35.60
13684;DHT22;6914;53.552;9.908;2022-08-04T11:20:10;37.10;37.40
13684;DHT22;6914;53.552;9.908;2022-08-04T11:22:41;37.40;37.60
13684;DHT22;6914;53.552;9.908;2022-08-04T11:25:13;37.10;36.80
13684;DHT22;6914;53.552;9.908;2022-08-04T11:28:01;36.80;36.00
13684;DHT22;6914;53.552;9.908;2022-08-04T11:30:35;36.60;35.10
13684;DHT22;6914;53.552;9.908;2022-08-04T11:33:09;37.20;34.40
13684;DHT22;6914;53.552;9.908;2022-08-04T11:35:51;37.50;32.70
13684;DHT22;6914;53.552;9.908;2022-08-04T11:38:21;37.40;32.30
13684;DHT22;6914;53.552;9.908;2022-08-04T11:40:57;38.10;32.40
13684;DHT22;6914;53.552;9.908;2022-08-04T11:43:28;38.40;32.70
13684;DHT22;6914;53.552;9.908;2022-08-04T11:46:02;39.50;31.70
13684;DHT22;6914;53.552;9.908;2022-08-04T11:48:36;39.10;30.70
13684;DHT22;6914;53.552;9.908;2022-08-04T11:51:08;38.90;31.10
13684;DHT22;6914;53.552;9.908;2022-08-04T11:53:37;38.20;31.60
13684;DHT22;6914;53.552;9.908;2022-08-04T11:56:10;37.70;32.30
13684;DHT22;6914;53.552;9.908;2022-08-04T11:58:37;37.40;32.70
13684;DHT22;6914;53.552;9.908;2022-08-04T12:01:11;37.10;32.70
13684;DHT22;6914;53.552;9.908;2022-08-04T12:03:48;37.00;33.60
13684;DHT22;6914;53.552;9.908;2022-08-04T12:06:26;37.30;34.20
13684;DHT22;6914;53.552;9.908;2022-08-04T12:09:03;37.80;33.20
13684;DHT22;6914;53.552;9.908;2022-08-04T12:12:01;38.50;32.20
13684;DHT22;6914;53.552;9.908;2022-08-04T12:14:40;38.70;30.80
13684;DHT22;6914;53.552;9.908;2022-08-04T12:17:10;38.60;31.00
13684;DHT22;6914;53.552;9.908;2022-08-04T12:19:44;38.20;32.10
13684;DHT22;6914;53.552;9.908;2022-08-04T12:22:18;37.80;31.70
13684;DHT22;6914;53.552;9.908;2022-08-04T12:24:50;37.60;31.70
13684;DHT22;6914;53.552;9.908;2022-08-04T12:27:23;37.10;32.20
13684;DHT22;6914;53.552;9.908;2022-08-04T12:29:50;37.40;33.10
13684;DHT22;6914;53.552;9.908;2022-08-04T12:32:22;38.20;32.30
13684;DHT22;6914;53.552;9.908;2022-08-04T12:34:59;38.60;31.70
13684;DHT22;6914;53.552;9.908;2022-08-04T12:37:47;38.40;32.10
13684;DHT22;6914;53.552;9.908;2022-08-04T12:40:21;38.20;31.50
13684;DHT22;6914;53.552;9.908;2022-08-04T12:42:54;38.50;32.20
13684;DHT22;6914;53.552;9.908;2022-08-04T12:45:24;38.90;32.00
13684;DHT22;6914;53.552;9.908;2022-08-04T12:47:52;38.60;31.70
13684;DHT22;6914;53.552;9.908;2022-08-04T12:50:22;38.30;32.40
13684;DHT22;6914;53.552;9.908;2022-08-04T12:52:54;38.90;32.30
13684;DHT22;6914;53.552;9.908;2022-08-04T12:55:24;38.70;32.00
13684;DHT22;6914;53.552;9.908;2022-08-04T12:57:54;37.90;31.70
13684;DHT22;6914;53.552;9.908;2022-08-04T13:00:27;37.70;32.60
13684;DHT22;6914;53.552;9.908;2022-08-04T13:02:59;37.70;33.10
13684;DHT22;6914;53.552;9.908;2022-08-04T13:05:29;37.80;33.00
13684;DHT22;6914;53.552;9.908;2022-08-04T13:07:59;38.10;33.40
13684;DHT22;6914;53.552;9.908;2022-08-04T13:10:27;38.50;32.90
13684;DHT22;6914;53.552;9.908;2022-08-04T13:12:57;38.70;32.60
13684;DHT22;6914;53.552;9.908;2022-08-04T13:15:26;38.20;32.40
13684;DHT22;6914;53.552;9.908;2022-08-04T13:17:58;37.10;33.30
13684;DHT22;6914;53.552;9.908;2022-08-04T13:20:28;37.10;34.40
13684;DHT22;6914;53.552;9.908;2022-08-04T13:23:04;36.90;34.00
13684;DHT22;6914;53.552;9.908;2022-08-04T13:25:33;36.90;34.20
13684;DHT22;6914;53.552;9.908;2022-08-04T13:28:01;37.10;34.40
13684;DHT22;6914;53.552;9.908;2022-08-04T13:30:31;37.40;34.20
13684;DHT22;6914;53.552;9.908;2022-08-04T13:33:01;37.30;33.90
13684;DHT22;6914;53.552;9.908;2022-08-04T13:35:30;37.50;34.30
13684;DHT22;6914;53.552;9.908;2022-08-04T13:38:01;37.30;33.40
13684;DHT22;6914;53.552;9.908;2022-08-04T13:40:29;37.50;33.80
13684;DHT22;6914;53.552;9.908;2022-08-04T13:42:57;37.80;33.70
13684;DHT22;6914;53.552;9.908;2022-08-04T13:45:24;37.60;33.20
13684;DHT22;6914;53.552;9.908;2022-08-04T13:47:58;37.30;33.90
13684;DHT22;6914;53.552;9.908;2022-08-04T13:50:27;37.10;34.40
13684;DHT22;6914;53.552;9.908;2022-08-04T13:52:57;36.80;34.50
13684;DHT22;6914;53.552;9.908;2022-08-04T13:55:33;36.40;35.20
13684;DHT22;6914;53.552;9.908;2022-08-04T13:58:04;36.40;35.30
13684;DHT22;6914;53.552;9.908;2022-08-04T14:00:45;36.70;35.20
13684;DHT22;6914;53.552;9.908;2022-08-04T14:03:21;37.00;35.50
13684;DHT22;6914;53.552;9.908;2022-08-04T14:06:13;37.20;35.00
13684;DHT22;6914;53.552;9.908;2022-08-04T14:08:47;37.00;34.60
13684;DHT22;6914;53.552;9.908;2022-08-04T14:11:18;36.80;34.60
13684;DHT22;6914;53.552;9.908;2022-08-04T14:13:45;36.60;35.30
13684;DHT22;6914;53.552;9.908;2022-08-04T14:16:16;36.50;35.20
13684;DHT22;6914;53.552;9.908;2022-08-04T14:18:44;36.30;35.30
13684;DHT22;6914;53.552;9.908;2022-08-04T14:21:12;36.40;36.10
13684;DHT22;6914;53.552;9.908;2022-08-04T14:23:46;36.50;36.30
13684;DHT22;6914;53.552;9.908;2022-08-04T14:26:34;36.50;35.50
13684;DHT22;6914;53.552;9.908;2022-08-04T14:29:10;36.30;35.40
13684;DHT22;6914;53.552;9.908;2022-08-04T14:31:37;36.00;35.30
13684;DHT22;6914;53.552;9.908;2022-08-04T14:34:05;36.00;35.60
13684;DHT22;6914;53.552;9.908;2022-08-04T14:36:39;35.90;36.00
13684;DHT22;6914;53.552;9.908;2022-08-04T14:39:07;35.90;36.60
13684;DHT22;6914;53.552;9.908;2022-08-04T14:41:46;35.70;37.80
13684;DHT22;6914;53.552;9.908;2022-08-04T14:44:14;35.10;41.90
13684;DHT22;6914;53.552;9.908;2022-08-04T14:46:51;34.70;44.80
13684;DHT22;6914;53.552;9.908;2022-08-04T14:49:19;34.00;47.50
13684;DHT22;6914;53.552;9.908;2022-08-04T14:51:52;33.60;50.30
13684;DHT22;6914;53.552;9.908;2022-08-04T14:54:27;33.20;52.90
13684;DHT22;6914;53.552;9.908;2022-08-04T14:56:59;32.90;53.70
13684;DHT22;6914;53.552;9.908;2022-08-04T14:59:39;32.50;55.00
13684;DHT22;6914;53.552;9.908;2022-08-04T15:02:10;32.40;56.80
13684;DHT22;6914;53.552;9.908;2022-08-04T15:04:38;32.00;61.00
13684;DHT22;6914;53.552;9.908;2022-08-04T15:07:07;31.80;72.80
13684;DHT22;6914;53.552;9.908;2022-08-04T15:09:36;31.70;91.10
13684;DHT22;6914;53.552;9.908;2022-08-04T15:12:06;31.40;93.20
13684;DHT22;6914;53.552;9.908;2022-08-04T15:14:33;31.10;94.90
13684;DHT22;6914;53.552;9.908;2022-08-04T15:17:01;30.80;96.30
13684;DHT22;6914;53.552;9.908;2022-08-04T15:19:28;30.60;96.00
13684;DHT22;6914;53.552;9.908;2022-08-04T15:21:57;30.40;97.90
13684;DHT22;6914;53.552;9.908;2022-08-04T15:24:24;30.10;98.40
13684;DHT22;6914;53.552;9.908;2022-08-04T15:26:53;29.90;99.00
13684;DHT22;6914;53.552;9.908;2022-08-04T15:29:30;29.90;99.90
13684;DHT22;6914;53.552;9.908;2022-08-04T15:32:03;29.60;99.90
13684;DHT22;6914;53.552;9.908;2022-08-04T15:34:52;29.20;99.90
13684;DHT22;6914;53.552;9.908;2022-08-04T15:37:26;28.90;99.90
13684;DHT22;6914;53.552;9.908;2022-08-04T15:39:59;28.70;99.90
13684;DHT22;6914;53.552;9.908;2022-08-04T15:42:35;28.40;99.90
13684;DHT22;6914;53.552;9.908;2022-08-04T15:45:17;28.00;99.90
13684;DHT22;6914;53.552;9.908;2022-08-04T15:48:21;27.70;99.90
13684;DHT22;6914;53.552;9.908;2022-08-04T15:51:03;27.50;99.90
13684;DHT22;6914;53.552;9.908;2022-08-04T15:56:52;26.70;99.90
13684;DHT22;6914;53.552;9.908;2022-08-04T15:59:55;26.40;99.90
13684;DHT22;6914;53.552;9.908;2022-08-04T16:02:49;26.10;99.90
13684;DHT22;6914;53.552;9.908;2022-08-04T16:05:35;25.50;99.90
13684;DHT22;6914;53.552;9.908;2022-08-04T16:08:14;24.80;99.90
13684;DHT22;6914;53.552;9.908;2022-08-04T16:10:45;24.10;99.90
13684;DHT22;6914;53.552;9.908;2022-08-04T16:13:14;23.60;99.90
13684;DHT22;6914;53.552;9.908;2022-08-04T16:15:50;23.30;99.90
13684;DHT22;6914;53.552;9.908;2022-08-04T16:18:39;23.10;99.90
13684;DHT22;6914;53.552;9.908;2022-08-04T16:21:20;23.10;99.90
13684;DHT22;6914;53.552;9.908;2022-08-04T16:26:50;23.30;99.90
13684;DHT22;6914;53.552;9.908;2022-08-04T16:29:37;23.40;99.90
13684;DHT22;6914;53.552;9.908;2022-08-04T16:32:19;23.50;99.90
13684;DHT22;6914;53.552;9.908;2022-08-04T16:34:59;23.60;99.90
13684;DHT22;6914;53.552;9.908;2022-08-04T16:37:32;23.70;99.90
13684;DHT22;6914;53.552;9.908;2022-08-04T16:40:25;23.70;99.90
13684;DHT22;6914;53.552;9.908;2022-08-04T16:42:56;23.70;99.90
13684;DHT22;6914;53.552;9.908;2022-08-04T16:45:46;23.70;99.90
13684;DHT22;6914;53.552;9.908;2022-08-04T16:48:15;23.70;99.90
13684;DHT22;6914;53.552;9.908;2022-08-04T16:50:56;23.70;99.90
13684;DHT22;6914;53.552;9.908;2022-08-04T16:53:27;23.70;99.90
13684;DHT22;6914;53.552;9.908;2022-08-04T16:55:55;23.70;99.90
13684;DHT22;6914;53.552;9.908;2022-08-04T16:58:31;23.60;99.90
13684;DHT22;6914;53.552;9.908;2022-08-04T17:01:06;23.60;99.90
13684;DHT22;6914;53.552;9.908;2022-08-04T17:03:36;23.50;99.90
13684;DHT22;6914;53.552;9.908;2022-08-04T17:06:07;23.50;99.90
13684;DHT22;6914;53.552;9.908;2022-08-04T17:08:38;23.60;99.90
13684;DHT22;6914;53.552;9.908;2022-08-04T17:11:06;23.50;99.90
13684;DHT22;6914;53.552;9.908;2022-08-04T17:13:37;23.40;99.90
13684;DHT22;6914;53.552;9.908;2022-08-04T17:16:07;23.40;99.90
13684;DHT22;6914;53.552;9.908;2022-08-04T17:18:37;23.40;99.90
13684;DHT22;6914;53.552;9.908;2022-08-04T17:21:08;23.50;99.90
13684;DHT22;6914;53.552;9.908;2022-08-04T17:23:38;23.60;99.90
13684;DHT22;6914;53.552;9.908;2022-08-04T17:26:09;23.60;99.90
13684;DHT22;6914;53.552;9.908;2022-08-04T17:28:36;23.70;99.90